Shortsville, Pennsylvania
Current Conditions -  °F | °C
As of 6:35 PM on Friday 19 Dec 2014 (Local Time) from KN38 Reporting Station
Overcast Overcast  
Wind Chill: 16°   Ceiling: 3000
Heat Index: 25°   Visibility: 10mi
Dew Point: 19°   Wind: 8mph
Humidity: 80%   Direction: 300°WNW
Pressure: 30.15"   Gusts: NA
Location:  41.8913°N, 77.3093°W
Report Text: KN38 192335Z AUTO 30007KT 10SM SCT018 OVC030 M04/M07 A3015 RMK AO2
Loading
Personal Weather Stations






























Interactive Weather Map New forecast layout! Learn more

10-Day Weather Forecast

Advertisements
Track Severe Weather on mobile